createdAt,value
2018-12-25T00:00:41.526Z,100739.31
2018-12-25T00:02:11.293Z,100734.47
2018-12-25T00:03:40.786Z,100739.51
2018-12-25T00:05:10.288Z,100739.72
2018-12-25T00:06:39.786Z,100740.08
2018-12-25T00:08:09.302Z,100738.47
2018-12-25T00:09:38.794Z,100735.38
2018-12-25T00:11:08.757Z,100738.56
2018-12-25T00:12:38.534Z,100741.77
2018-12-25T00:14:08.171Z,100745.39
2018-12-25T00:15:37.947Z,100743.27
2018-12-25T00:17:07.449Z,100745.77
2018-12-25T00:18:36.972Z,100742.36
2018-12-25T00:20:06.471Z,100745.79
2018-12-25T00:21:36.352Z,100741.45
2018-12-25T00:23:05.865Z,100740.41
2018-12-25T00:24:35.382Z,100741.81
2018-12-25T00:26:05.184Z,100734.82
2018-12-25T00:27:35.306Z,100730.39
2018-12-25T00:29:05.312Z,100734.80
2018-12-25T00:30:35.112Z,100734.49
2018-12-25T00:32:04.606Z,100720.72
2018-12-25T00:33:34.490Z,100713.31
2018-12-25T00:35:04.489Z,100714.42
2018-12-25T00:36:34.309Z,100715.92
2018-12-25T00:38:03.808Z,100714.86
2018-12-25T00:39:33.582Z,100718.73
2018-12-25T00:41:03.173Z,100710.48
2018-12-25T00:42:33.008Z,100709.72
2018-12-25T00:44:02.629Z,100717.17
2018-12-25T00:45:32.132Z,100713.05
2018-12-25T00:47:01.636Z,100713.05
2018-12-25T00:48:31.290Z,100717.48
2018-12-25T00:50:00.917Z,100711.74
2018-12-25T00:51:30.524Z,100713.70
2018-12-25T00:53:00.029Z,100721.05
2018-12-25T00:54:29.631Z,100722.67
2018-12-25T00:55:59.235Z,100715.37
2018-12-25T00:57:28.736Z,100722.41
2018-12-25T00:58:58.249Z,100719.63
2018-12-25T01:00:27.740Z,100725.13
2018-12-25T01:01:57.341Z,100734.74
2018-12-25T01:03:27.133Z,100743.90
2018-12-25T01:04:56.650Z,100740.78
2018-12-25T01:06:26.148Z,100738.98
2018-12-25T01:07:55.649Z,100742.76
2018-12-25T01:09:25.166Z,100747.67
2018-12-25T01:10:54.664Z,100751.80
2018-12-25T01:12:24.445Z,100749.83
2018-12-25T01:13:53.939Z,100757.69
2018-12-25T01:15:23.458Z,100751.90
2018-12-25T01:16:53.297Z,100757.03
2018-12-25T01:18:23.083Z,100758.63
2018-12-25T01:19:52.794Z,100756.78
2018-12-25T01:21:22.391Z,100751.84
2018-12-25T01:22:52.510Z,100753.62
2018-12-25T01:24:22.019Z,100755.44
2018-12-25T01:25:51.529Z,100752.75
2018-12-25T01:27:21.039Z,100745.02
2018-12-25T01:28:51.003Z,100749.95
2018-12-25T01:30:20.510Z,100756.52
2018-12-25T01:31:50.096Z,100750.64
2018-12-25T01:33:19.587Z,100747.42
2018-12-25T01:34:49.108Z,100754.28
2018-12-25T01:36:18.917Z,100757.14
2018-12-25T01:37:48.416Z,100755.23
2018-12-25T01:39:18.450Z,100755.44
2018-12-25T01:40:48.056Z,100748.13
2018-12-25T01:42:17.561Z,100743.48
2018-12-25T01:43:47.156Z,100740.71
2018-12-25T01:45:16.658Z,100737.53
2018-12-25T01:46:46.437Z,100738.09
2018-12-25T01:48:15.935Z,100734.11
2018-12-25T01:49:45.460Z,100729.83
2018-12-25T01:51:14.955Z,100724.05
2018-12-25T01:52:44.469Z,100718.52
2018-12-25T01:54:13.963Z,100718.86
2018-12-25T01:55:43.472Z,100723.77
2018-12-25T01:57:13.319Z,100729.44
2018-12-25T01:58:42.825Z,100740.47
2018-12-25T02:00:12.717Z,100746.88
2018-12-25T02:01:42.230Z,100748.83
2018-12-25T02:03:11.718Z,100748.20
2018-12-25T02:04:41.212Z,100748.36
2018-12-25T02:06:10.723Z,100747.23
2018-12-25T02:07:40.226Z,100753.58
2018-12-25T02:09:09.735Z,100747.07
2018-12-25T02:10:39.260Z,100752.09
2018-12-25T02:12:08.847Z,100762.66
2018-12-25T02:13:38.358Z,100753.48
2018-12-25T02:15:07.863Z,100752.86
2018-12-25T02:16:37.358Z,100755.15
2018-12-25T02:18:06.840Z,100760.78
2018-12-25T02:19:40.149Z,100753.23
2018-12-25T02:21:07.865Z,100759.58
2018-12-25T02:22:37.484Z,100762.47
2018-12-25T02:24:06.992Z,100761.59
2018-12-25T02:25:36.503Z,100751.44
2018-12-25T02:27:05.990Z,100752.09
2018-12-25T02:28:35.493Z,100748.11
2018-12-25T02:30:05.547Z,100761.59
2018-12-25T02:31:35.354Z,100759.26
2018-12-25T02:33:05.157Z,100755.11
2018-12-25T02:34:34.655Z,100751.63
2018-12-25T02:36:04.516Z,100753.98
2018-12-25T02:37:34.120Z,100758.87
2018-12-25T02:39:06.297Z,100757.59
2018-12-25T02:40:35.818Z,100752.88
2018-12-25T02:42:05.320Z,100751.72
2018-12-25T02:43:35.109Z,100746.69
2018-12-25T02:45:04.719Z,100741.35
2018-12-25T02:46:34.241Z,100744.17
2018-12-25T02:48:03.740Z,100740.22
2018-12-25T02:49:33.533Z,100745.06
2018-12-25T02:51:03.144Z,100749.65
2018-12-25T02:52:32.769Z,100741.01
2018-12-25T02:54:02.316Z,100752.13
2018-12-25T02:55:31.799Z,100750.45
2018-12-25T02:57:01.295Z,100755.11
2018-12-25T02:58:31.191Z,100756.02
2018-12-25T03:00:00.828Z,100756.88
2018-12-25T03:01:30.605Z,100746.81
2018-12-25T03:03:00.836Z,100747.75
2018-12-25T03:04:30.765Z,100744.86
2018-12-25T03:06:00.359Z,100741.27
2018-12-25T03:07:29.851Z,100743.85
2018-12-25T03:08:59.343Z,100732.58
2018-12-25T03:10:28.941Z,100737.51
2018-12-25T03:11:58.774Z,100737.42
2018-12-25T03:13:28.274Z,100745.78
2018-12-25T03:14:57.758Z,100745.78
2018-12-25T03:16:27.261Z,100747.91
2018-12-25T03:17:56.846Z,100751.06
2018-12-25T03:19:26.443Z,100745.43
2018-12-25T03:20:56.310Z,100752.50
2018-12-25T03:22:25.859Z,100751.01
2018-12-25T03:23:55.363Z,100745.44
2018-12-25T03:25:24.866Z,100745.47
2018-12-25T03:26:54.375Z,100738.39
2018-12-25T03:28:23.881Z,100739.63
2018-12-25T03:29:53.642Z,100739.68
2018-12-25T03:31:23.199Z,100738.86
2018-12-25T03:32:52.661Z,100734.10
2018-12-25T03:34:22.440Z,100736.18
2018-12-25T03:35:52.355Z,100737.00
2018-12-25T03:37:21.873Z,100735.38
2018-12-25T03:38:51.464Z,100733.69
2018-12-25T03:40:20.959Z,100734.51
2018-12-25T03:41:50.788Z,100734.08
2018-12-25T03:43:20.279Z,100730.65
2018-12-25T03:44:50.055Z,100725.63
2018-12-25T03:46:19.756Z,100723.80
2018-12-25T03:47:49.633Z,100720.34
2018-12-25T03:49:19.456Z,100721.59
2018-12-25T03:50:49.276Z,100725.72
2018-12-25T03:52:18.774Z,100725.63
2018-12-25T03:53:48.614Z,100726.31
2018-12-25T03:55:18.397Z,100724.64
2018-12-25T03:56:47.891Z,100717.84
2018-12-25T03:58:17.381Z,100720.16
2018-12-25T03:59:47.184Z,100724.23
2018-12-25T04:01:16.984Z,100720.28
2018-12-25T04:02:46.503Z,100715.26
2018-12-25T04:04:16.367Z,100717.69
2018-12-25T04:05:45.861Z,100723.88
2018-12-25T04:07:15.366Z,100720.02
2018-12-25T04:08:45.191Z,100717.95
2018-12-25T04:10:14.677Z,100717.48
2018-12-25T04:11:44.177Z,100716.61
2018-12-25T04:13:13.677Z,100720.47
2018-12-25T04:14:43.274Z,100725.28
2018-12-25T04:16:13.165Z,100719.98
2018-12-25T04:17:42.676Z,100723.75
2018-12-25T04:19:12.804Z,100733.80
2018-12-25T04:20:42.393Z,100723.58
2018-12-25T04:22:11.902Z,100732.45
2018-12-25T04:23:41.665Z,100730.38
2018-12-25T04:25:11.273Z,100730.77
2018-12-25T04:26:40.793Z,100728.66
2018-12-25T04:28:10.602Z,100735.89
2018-12-25T04:29:40.490Z,100740.91
2018-12-25T04:31:10.320Z,100735.98
2018-12-25T04:32:39.917Z,100739.91
2018-12-25T04:34:09.516Z,100730.52
2018-12-25T04:35:39.105Z,100732.81
2018-12-25T04:37:08.946Z,100734.92
2018-12-25T04:38:38.542Z,100732.25
2018-12-25T04:40:08.339Z,100727.14
2018-12-25T04:41:37.927Z,100732.95
2018-12-25T04:43:08.044Z,100733.84
2018-12-25T04:44:37.843Z,100730.73
2018-12-25T04:46:07.346Z,100732.72
2018-12-25T04:47:37.144Z,100730.00
2018-12-25T04:49:06.636Z,100728.00
2018-12-25T04:50:36.634Z,100731.77
2018-12-25T04:52:06.249Z,100730.73
2018-12-25T04:53:36.575Z,100734.84
2018-12-25T04:55:06.410Z,100730.73
2018-12-25T04:56:35.902Z,100734.19
2018-12-25T04:58:05.765Z,100725.97
2018-12-25T04:59:35.597Z,100723.89
2018-12-25T05:01:05.409Z,100733.11
2018-12-25T05:02:34.911Z,100726.14
2018-12-25T05:04:04.774Z,100728.66
2018-12-25T05:05:34.270Z,100729.26
2018-12-25T05:07:03.858Z,100732.86
2018-12-25T05:08:33.465Z,100733.20
2018-12-25T05:10:03.231Z,100737.23
2018-12-25T05:11:32.737Z,100736.48
2018-12-25T05:13:02.836Z,100746.23
2018-12-25T05:14:32.583Z,100747.17
2018-12-25T05:16:02.511Z,100748.60
2018-12-25T05:17:32.626Z,100740.84
2018-12-25T05:19:02.218Z,100743.27
2018-12-25T05:20:37.796Z,100744.78
2018-12-25T05:22:03.101Z,100746.83
2018-12-25T05:23:32.611Z,100748.31
2018-12-25T05:25:02.200Z,100745.72
2018-12-25T05:26:31.724Z,100746.41
2018-12-25T05:28:01.222Z,100748.52
2018-12-25T05:29:30.823Z,100753.02
2018-12-25T05:31:00.663Z,100749.17
2018-12-25T05:32:30.473Z,100744.92
2018-12-25T05:33:59.992Z,100742.10
2018-12-25T05:35:29.885Z,100742.61
2018-12-25T05:36:59.390Z,100749.20
2018-12-25T05:38:29.213Z,100749.20
2018-12-25T05:39:58.706Z,100745.48
2018-12-25T05:41:28.204Z,100748.43
2018-12-25T05:42:57.973Z,100741.64
2018-12-25T05:44:28.119Z,100740.86
2018-12-25T05:45:57.603Z,100742.12
2018-12-25T05:47:27.101Z,100743.98
2018-12-25T05:48:56.993Z,100740.21
2018-12-25T05:50:26.483Z,100732.59
2018-12-25T05:51:55.981Z,100732.59
2018-12-25T05:53:25.488Z,100741.34
2018-12-25T05:54:55.272Z,100742.12
2018-12-25T05:56:24.765Z,100748.60
2018-12-25T05:57:54.265Z,100747.95
2018-12-25T05:59:23.757Z,100748.52
2018-12-25T06:00:53.601Z,100751.28
2018-12-25T06:02:23.404Z,100753.70
2018-12-25T06:03:53.202Z,100759.21
2018-12-25T06:05:22.699Z,100759.21
2018-12-25T06:06:52.513Z,100757.78
2018-12-25T06:08:22.027Z,100756.95
2018-12-25T06:09:51.519Z,100754.45
2018-12-25T06:11:21.297Z,100754.82
2018-12-25T06:12:51.125Z,100754.82
2018-12-25T06:14:20.640Z,100750.45
2018-12-25T06:15:50.810Z,100754.70
2018-12-25T06:17:20.304Z,100753.31
2018-12-25T06:18:50.212Z,100749.52
2018-12-25T06:20:19.805Z,100751.77
2018-12-25T06:21:49.289Z,100748.69
2018-12-25T06:23:19.118Z,100748.43
2018-12-25T06:24:48.605Z,100749.20
2018-12-25T06:26:18.104Z,100749.88
2018-12-25T06:27:47.927Z,100748.06
2018-12-25T06:29:17.867Z,100750.45
2018-12-25T06:30:47.364Z,100746.69
2018-12-25T06:32:16.955Z,100751.70
2018-12-25T06:33:46.460Z,100754.22
2018-12-25T06:35:16.014Z,100757.73
2018-12-25T06:36:45.478Z,100750.11
2018-12-25T06:38:14.975Z,100747.69
2018-12-25T06:39:44.477Z,100747.52
2018-12-25T06:41:13.988Z,100739.67
2018-12-25T06:42:43.817Z,100747.29
2018-12-25T06:44:13.428Z,100746.28
2018-12-25T06:45:42.922Z,100739.61
2018-12-25T06:47:12.710Z,100731.83
2018-12-25T06:48:42.520Z,100725.22
2018-12-25T06:50:12.016Z,100729.12
2018-12-25T06:51:41.616Z,100736.91
2018-12-25T06:53:11.113Z,100734.14
2018-12-25T06:54:46.705Z,100738.16
2018-12-25T06:56:16.210Z,100737.59
2018-12-25T06:57:45.800Z,100738.84
2018-12-25T06:59:15.309Z,100731.57
2018-12-25T07:00:44.807Z,100733.83
2018-12-25T07:02:14.307Z,100740.09
2018-12-25T07:03:43.915Z,100736.59
2018-12-25T07:05:13.415Z,100736.42
2018-12-25T07:06:42.920Z,100742.84
2018-12-25T07:08:12.412Z,100738.50
2018-12-25T07:09:42.251Z,100744.86
2018-12-25T07:11:11.756Z,100747.03
2018-12-25T07:12:41.242Z,100743.04
2018-12-25T07:14:10.879Z,100751.65
2018-12-25T07:15:40.466Z,100747.05
2018-12-25T07:17:10.370Z,100737.59
2018-12-25T07:18:39.874Z,100733.83
2018-12-25T07:20:09.386Z,100744.23
2018-12-25T07:21:39.154Z,100745.31
2018-12-25T07:23:09.271Z,100744.55
2018-12-25T07:24:38.778Z,100749.25
2018-12-25T07:26:08.373Z,100745.56
2018-12-25T07:27:37.871Z,100743.46
2018-12-25T07:29:07.658Z,100738.96
2018-12-25T07:30:37.163Z,100741.61
2018-12-25T07:32:06.657Z,100735.59
2018-12-25T07:33:36.601Z,100735.82
2018-12-25T07:35:06.132Z,100739.93
2018-12-25T07:36:36.080Z,100730.38
2018-12-25T07:38:06.009Z,100739.59
2018-12-25T07:39:35.682Z,100734.14
2018-12-25T07:41:05.392Z,100735.56
2018-12-25T07:42:35.149Z,100733.74
2018-12-25T07:44:05.031Z,100729.64
2018-12-25T07:45:34.832Z,100729.03
2018-12-25T07:47:05.189Z,100729.55
2018-12-25T07:49:02.644Z,100731.55
2018-12-25T07:50:33.075Z,100733.88
2018-12-25T07:52:03.221Z,100736.39
2018-12-25T07:53:33.111Z,100738.13
2018-12-25T07:55:02.915Z,100740.64
2018-12-25T07:56:38.597Z,100743.38
2018-12-25T07:58:08.211Z,100744.89
2018-12-25T07:59:38.074Z,100740.78
2018-12-25T08:01:07.561Z,100739.70
2018-12-25T08:02:37.225Z,100739.27
2018-12-25T08:04:06.906Z,100737.92
2018-12-25T08:05:36.803Z,100742.86
2018-12-25T08:07:06.926Z,100737.06
2018-12-25T08:08:36.500Z,100741.69
2018-12-25T08:10:12.464Z,100738.05
2018-12-25T08:11:42.424Z,100734.70
2018-12-25T08:13:11.962Z,100731.59
2018-12-25T08:14:41.509Z,100732.45
2018-12-25T08:16:11.527Z,100727.20
2018-12-25T08:17:41.055Z,100723.05
2018-12-25T08:19:10.923Z,100726.13
2018-12-25T08:20:40.443Z,100726.09
2018-12-25T08:22:19.031Z,100721.90
2018-12-25T08:23:48.885Z,100723.20
2018-12-25T08:25:18.637Z,100714.16
2018-12-25T08:26:48.388Z,100708.74
2018-12-25T08:28:18.299Z,100708.39
2018-12-25T08:29:47.879Z,100711.20
2018-12-25T08:31:17.854Z,100717.55
2018-12-25T08:32:47.386Z,100710.48
2018-12-25T08:34:17.165Z,100709.96
2018-12-25T08:35:47.178Z,100711.13
2018-12-25T08:37:16.845Z,100716.53
2018-12-25T08:38:49.283Z,100711.60
2018-12-25T08:40:19.230Z,100715.09
2018-12-25T08:41:49.099Z,100716.05
2018-12-25T08:43:18.643Z,100710.73
2018-12-25T08:44:48.179Z,100711.21
2018-12-25T08:46:17.875Z,100706.00
2018-12-25T08:47:47.798Z,100706.81
2018-12-25T08:49:17.819Z,100711.49
2018-12-25T08:50:47.369Z,100713.82
2018-12-25T08:52:16.921Z,100714.08
2018-12-25T08:53:46.485Z,100716.49
2018-12-25T08:55:19.632Z,100727.46
2018-12-25T08:56:49.616Z,100728.44
2018-12-25T08:58:19.122Z,100727.77
2018-12-25T08:59:48.692Z,100729.09
2018-12-25T09:01:18.519Z,100722.61
2018-12-25T09:02:48.208Z,100726.06
2018-12-25T09:04:18.186Z,100720.48
2018-12-25T09:05:47.854Z,100722.79
2018-12-25T09:07:17.525Z,100717.06
2018-12-25T09:08:47.197Z,100728.00
2018-12-25T09:10:20.217Z,100724.39
2018-12-25T09:11:50.268Z,100727.08
2018-12-25T09:13:19.995Z,100728.16
2018-12-25T09:14:49.852Z,100716.73
2018-12-25T09:16:19.809Z,100715.84
2018-12-25T09:17:49.436Z,100707.83
2018-12-25T09:19:19.114Z,100709.23
2018-12-25T09:20:48.683Z,100718.20
2018-12-25T09:22:18.238Z,100710.45
2018-12-25T09:23:48.330Z,100718.40
2018-12-25T09:25:18.237Z,100716.69
2018-12-25T09:26:47.824Z,100721.20
2018-12-25T09:28:17.822Z,100727.95
2018-12-25T09:29:47.608Z,100731.42
2018-12-25T09:31:17.394Z,100736.73
2018-12-25T09:32:47.281Z,100730.77
2018-12-25T09:34:17.343Z,100729.87
2018-12-25T09:35:47.287Z,100727.57
2018-12-25T09:37:17.153Z,100733.41
2018-12-25T09:38:46.927Z,100738.24
2018-12-25T09:40:16.733Z,100744.20
2018-12-25T09:41:46.710Z,100746.57
2018-12-25T09:43:16.227Z,100743.57
2018-12-25T09:44:45.770Z,100748.14
2018-12-25T09:46:15.389Z,100742.13
2018-12-25T09:47:44.892Z,100745.29
2018-12-25T09:49:14.841Z,100739.29
2018-12-25T09:50:44.360Z,100741.30
2018-12-25T09:52:14.135Z,100742.91
2018-12-25T09:53:43.626Z,100739.20
2018-12-25T09:55:13.166Z,100740.11
2018-12-25T09:56:43.743Z,100736.20
2018-12-25T09:58:13.855Z,100735.53
2018-12-25T09:59:43.762Z,100734.46
2018-12-25T10:01:13.312Z,100743.66
2018-12-25T10:02:42.826Z,100738.44
2018-12-25T10:04:12.751Z,100738.62
2018-12-25T10:05:42.529Z,100735.72
2018-12-25T10:07:12.036Z,100723.73
2018-12-25T10:08:41.550Z,100724.22
2018-12-25T10:10:11.066Z,100722.47
2018-12-25T10:11:44.470Z,100724.30
2018-12-25T10:13:11.936Z,100724.38
2018-12-25T10:14:42.174Z,100722.03
2018-12-25T10:16:12.015Z,100714.69
2018-12-25T10:17:41.507Z,100710.50
2018-12-25T10:19:11.325Z,100703.83
2018-12-25T10:20:41.000Z,100710.72
2018-12-25T10:22:10.511Z,100712.26
2018-12-25T10:23:40.437Z,100719.45
2018-12-25T10:25:09.984Z,100717.20
2018-12-25T10:26:40.146Z,100710.79
2018-12-25T10:28:10.152Z,100704.36
2018-12-25T10:29:39.656Z,100702.04
2018-12-25T10:31:09.185Z,100702.54
2018-12-25T10:40:25.388Z,100694.11
2018-12-25T10:41:54.875Z,100695.92
2018-12-25T10:43:24.715Z,100699.45
2018-12-25T10:44:54.487Z,100697.91
2018-12-25T10:46:24.007Z,100696.91
2018-12-25T10:47:53.778Z,100693.83
2018-12-25T10:49:23.270Z,100693.50
2018-12-25T10:50:53.512Z,100700.02
2018-12-25T10:52:23.010Z,100693.61
2018-12-25T10:53:53.633Z,100695.58
2018-12-25T10:55:23.346Z,100694.92
2018-12-25T10:56:52.870Z,100693.91
2018-12-25T10:58:22.749Z,100695.03
2018-12-25T10:59:52.526Z,100687.96
2018-12-25T11:01:25.682Z,100682.13
2018-12-25T11:02:55.277Z,100678.09
2018-12-25T11:04:25.137Z,100674.72
2018-12-25T11:05:54.656Z,100671.16
2018-12-25T11:07:24.754Z,100671.56
2018-12-25T11:08:54.535Z,100665.94
2018-12-25T11:10:24.033Z,100666.34
2018-12-25T11:11:53.679Z,100659.62
2018-12-25T11:13:23.171Z,100653.89
2018-12-25T11:14:52.693Z,100652.38
2018-12-25T11:16:22.583Z,100647.94
2018-12-25T11:17:52.203Z,100641.69
2018-12-25T11:19:21.700Z,100635.30
2018-12-25T11:20:51.475Z,100634.19
2018-12-25T11:22:21.006Z,100627.41
2018-12-25T11:23:50.602Z,100628.53
2018-12-25T11:25:20.094Z,100623.91
2018-12-25T11:26:49.950Z,100620.67
2018-12-25T11:28:19.549Z,100624.05
2018-12-25T11:29:49.353Z,100629.45
2018-12-25T11:31:18.978Z,100618.59
2018-12-25T11:32:48.487Z,100617.86
2018-12-25T11:34:17.983Z,100622.02
2018-12-25T11:35:48.183Z,100617.27
2018-12-25T11:37:17.693Z,100615.32
2018-12-25T11:38:47.303Z,100615.00
2018-12-25T11:40:17.073Z,100611.81
2018-12-25T11:41:46.587Z,100610.08
2018-12-25T11:43:16.094Z,100612.76
2018-12-25T11:44:45.582Z,100606.08
2018-12-25T11:46:15.113Z,100609.77
2018-12-25T11:47:44.954Z,100616.02
2018-12-25T11:52:10.277Z,100607.41
2018-12-25T11:53:39.870Z,100603.98
2018-12-25T11:55:09.376Z,100598.74
2018-12-25T11:56:39.189Z,100593.90
2018-12-25T11:58:09.025Z,100594.66
2018-12-25T11:59:38.533Z,100594.14
2018-12-25T12:01:08.270Z,100588.69
2018-12-25T12:02:37.792Z,100585.95
2018-12-25T12:04:07.301Z,100591.27
2018-12-25T12:05:36.941Z,100593.59
2018-12-25T12:07:06.477Z,100586.67
2018-12-25T12:08:36.636Z,100586.17
2018-12-25T12:10:07.377Z,100584.17
2018-12-25T12:11:37.173Z,100584.36
2018-12-25T12:13:07.426Z,100581.26
2018-12-25T12:14:37.183Z,100583.09
2018-12-25T12:16:06.899Z,100585.11
2018-12-25T12:17:36.834Z,100587.28
2018-12-25T12:19:06.484Z,100596.77
2018-12-25T12:20:36.105Z,100587.08
2018-12-25T12:22:05.988Z,100585.61
2018-12-25T12:23:35.713Z,100588.36
2018-12-25T12:25:05.412Z,100602.05
2018-12-25T12:26:35.069Z,100598.42
2018-12-25T12:28:05.103Z,100598.07
2018-12-25T12:29:34.737Z,100596.81
2018-12-25T12:31:04.667Z,100593.16
2018-12-25T12:32:34.873Z,100586.97
2018-12-25T12:34:04.582Z,100589.11
2018-12-25T12:35:34.393Z,100585.28
2018-12-25T12:37:04.820Z,100581.78
2018-12-25T12:38:34.701Z,100585.09
2018-12-25T12:40:05.159Z,100578.52
2018-12-25T12:41:34.832Z,100582.52
2018-12-25T12:43:04.664Z,100574.27
2018-12-25T12:44:34.340Z,100572.97
2018-12-25T12:46:03.961Z,100580.08
2018-12-25T12:47:33.550Z,100583.38
2018-12-25T12:49:03.212Z,100592.87
2018-12-25T12:50:32.883Z,100586.70
2018-12-25T12:52:02.667Z,100591.06
2018-12-25T12:53:32.526Z,100577.36
2018-12-25T12:55:02.348Z,100579.36
2018-12-25T12:56:32.043Z,100592.51
2018-12-25T12:58:01.763Z,100591.81
2018-12-25T12:59:31.833Z,100591.81
2018-12-25T13:01:02.648Z,100591.97
2018-12-25T13:02:32.600Z,100591.80
2018-12-25T13:04:02.418Z,100599.46
2018-12-25T13:05:32.216Z,100597.97
2018-12-25T13:07:02.101Z,100606.58
2018-12-25T13:08:31.749Z,100605.28
2018-12-25T13:10:01.566Z,100609.47
2018-12-25T13:11:31.184Z,100606.34
2018-12-25T13:13:00.914Z,100609.02
2018-12-25T13:14:32.563Z,100602.19
2018-12-25T13:16:02.217Z,100606.41
2018-12-25T13:17:31.971Z,100605.88
2018-12-25T13:19:02.376Z,100606.06
2018-12-25T13:20:32.196Z,100601.66
2018-12-25T13:22:01.967Z,100598.58
2018-12-25T13:23:31.695Z,100599.33
2018-12-25T13:25:01.342Z,100590.94
2018-12-25T13:26:31.220Z,100590.03
2018-12-25T13:28:01.029Z,100593.50
2018-12-25T13:29:30.985Z,100603.56
2018-12-25T13:31:01.176Z,100603.03
2018-12-25T13:32:31.241Z,100603.25
2018-12-25T13:34:01.015Z,100602.34
2018-12-25T13:35:30.763Z,100597.25
2018-12-25T13:37:00.687Z,100597.25
2018-12-25T13:38:30.701Z,100603.48
2018-12-25T13:40:00.440Z,100607.88
2018-12-25T13:41:30.347Z,100613.19
2018-12-25T13:43:00.002Z,100611.91
2018-12-25T13:44:29.792Z,100614.87
2018-12-25T13:45:59.622Z,100622.34
2018-12-25T13:47:29.524Z,100623.95
2018-12-25T13:48:59.020Z,100625.61
2018-12-25T13:50:28.769Z,100626.15
2018-12-25T13:51:58.452Z,100627.06
2018-12-25T13:53:28.392Z,100630.12
2018-12-25T13:54:58.663Z,100631.55
2018-12-25T13:56:28.316Z,100628.98
2018-12-25T13:58:18.287Z,100632.80
2018-12-25T13:59:47.832Z,100634.56
2018-12-25T14:01:17.516Z,100634.20
2018-12-25T14:02:48.364Z,100631.46
2018-12-25T14:04:18.328Z,100637.07
2018-12-25T14:05:48.142Z,100639.08
2018-12-25T14:07:17.899Z,100645.77
2018-12-25T14:08:47.725Z,100641.54
2018-12-25T14:10:17.762Z,100643.19
2018-12-25T14:11:47.449Z,100632.78
2018-12-25T14:13:17.299Z,100629.91
2018-12-25T14:14:47.478Z,100630.04
2018-12-25T14:16:18.198Z,100626.92
2018-12-25T14:17:48.459Z,100633.05
2018-12-25T14:19:18.159Z,100628.01
2018-12-25T14:20:48.315Z,100626.53
2018-12-25T14:22:18.153Z,100625.22
2018-12-25T14:23:48.118Z,100629.56
2018-12-25T14:25:17.941Z,100626.23
2018-12-25T14:26:47.613Z,100623.63
2018-12-25T14:28:17.601Z,100624.66
2018-12-25T14:29:47.931Z,100626.35
2018-12-25T14:31:17.657Z,100624.39
2018-12-25T14:32:47.577Z,100635.84
2018-12-25T14:34:17.588Z,100637.31
2018-12-25T14:35:47.275Z,100634.17
2018-12-25T14:37:17.128Z,100644.23
2018-12-25T14:38:47.161Z,100643.11
2018-12-25T14:40:17.125Z,100652.40
2018-12-25T14:41:46.942Z,100646.55
2018-12-25T14:43:16.792Z,100644.47
2018-12-25T14:44:46.904Z,100638.95
2018-12-25T14:46:16.727Z,100645.02
2018-12-25T14:47:46.580Z,100635.27
2018-12-25T14:49:18.267Z,100642.91
2018-12-25T14:50:48.543Z,100641.70
2018-12-25T14:52:18.399Z,100644.53
2018-12-25T14:53:48.850Z,100646.98
2018-12-25T14:55:19.046Z,100647.48
2018-12-25T14:56:48.945Z,100651.39
2018-12-25T14:58:19.195Z,100656.95
2018-12-25T14:59:49.119Z,100650.64
2018-12-25T15:01:19.035Z,100653.63
2018-12-25T15:02:48.953Z,100656.59
2018-12-25T15:04:19.108Z,100657.97
2018-12-25T15:05:49.301Z,100662.94
2018-12-25T15:07:19.148Z,100658.11
2018-12-25T15:08:49.106Z,100657.95
2018-12-25T15:10:18.777Z,100656.56
2018-12-25T15:11:48.765Z,100658.94
2018-12-25T15:13:18.832Z,100664.07
2018-12-25T15:14:48.841Z,100660.91
2018-12-25T15:16:19.184Z,100656.07
2018-12-25T15:17:49.107Z,100653.14
2018-12-25T15:19:19.004Z,100653.83
2018-12-25T15:20:49.114Z,100661.88
2018-12-25T15:22:18.749Z,100661.93
2018-12-25T15:23:48.645Z,100661.56
2018-12-25T15:25:18.853Z,100669.61
2018-12-25T15:26:49.081Z,100672.14
2018-12-25T15:28:18.848Z,100668.61
2018-12-25T15:29:48.769Z,100663.53
2018-12-25T15:31:18.528Z,100664.78
2018-12-25T15:32:48.389Z,100660.97
2018-12-25T15:34:18.339Z,100665.02
2018-12-25T15:35:48.324Z,100673.03
2018-12-25T15:37:18.766Z,100671.48
2018-12-25T15:38:48.491Z,100670.47
2018-12-25T15:40:18.272Z,100674.17
2018-12-25T15:41:48.128Z,100673.52
2018-12-25T15:43:18.530Z,100674.72
2018-12-25T15:44:48.830Z,100667.74
2018-12-25T15:46:18.685Z,100674.75
2018-12-25T15:47:48.479Z,100673.57
2018-12-25T15:49:18.376Z,100678.03
2018-12-25T15:50:48.040Z,100677.02
2018-12-25T15:52:17.865Z,100670.40
2018-12-25T15:53:47.657Z,100675.03
2018-12-25T15:55:17.559Z,100675.41
2018-12-25T15:56:47.215Z,100672.88
2018-12-25T15:58:19.509Z,100671.19
2018-12-25T15:59:49.667Z,100670.65
2018-12-25T16:01:19.282Z,100676.80
2018-12-25T16:02:49.109Z,100673.41
2018-12-25T16:04:18.913Z,100673.29
2018-12-25T16:05:48.920Z,100670.29
2018-12-25T16:07:18.937Z,100674.20
2018-12-25T16:08:48.520Z,100675.00
2018-12-25T16:10:18.204Z,100678.13
2018-12-25T16:11:47.789Z,100684.72
2018-12-25T16:13:18.072Z,100686.11
2018-12-25T16:14:47.969Z,100690.38
2018-12-25T16:16:17.535Z,100689.58
2018-12-25T16:17:47.477Z,100697.95
2018-12-25T16:19:17.432Z,100695.91
2018-12-25T16:20:46.993Z,100693.42
2018-12-25T16:22:16.506Z,100694.45
2018-12-25T16:23:46.274Z,100699.14
2018-12-25T16:25:15.803Z,100694.21
2018-12-25T16:26:45.388Z,100697.56
2018-12-25T16:28:15.195Z,100693.70
2018-12-25T16:29:44.828Z,100691.48
2018-12-25T16:31:14.599Z,100691.48
2018-12-25T16:32:44.234Z,100694.87
2018-12-25T16:34:14.301Z,100689.97
2018-12-25T16:35:43.992Z,100688.04
2018-12-25T16:37:13.898Z,100692.17
2018-12-25T16:38:43.432Z,100695.73
2018-12-25T16:40:13.945Z,100700.06
2018-12-25T16:41:43.482Z,100702.36
2018-12-25T16:43:13.467Z,100707.89
2018-12-25T16:44:43.505Z,100704.09
2018-12-25T16:46:13.267Z,100714.55
2018-12-25T16:47:42.919Z,100707.41
2018-12-25T16:49:12.484Z,100708.00
2018-12-25T16:50:42.170Z,100712.14
2018-12-25T16:52:12.036Z,100710.45
2018-12-25T16:53:42.043Z,100705.64
2018-12-25T16:55:11.827Z,100707.59
2018-12-25T16:56:41.894Z,100703.23
2018-12-25T16:58:11.669Z,100700.12
2018-12-25T16:59:42.230Z,100695.19
2018-12-25T17:01:12.209Z,100696.36
2018-12-25T17:02:41.951Z,100698.31
2018-12-25T17:04:11.928Z,100700.50
2018-12-25T17:05:41.939Z,100701.29
2018-12-25T17:07:11.696Z,100698.54
2018-12-25T17:08:41.503Z,100704.03
2018-12-25T17:10:11.442Z,100694.17
2018-12-25T17:11:41.040Z,100696.26
2018-12-25T17:13:11.145Z,100688.45
2018-12-25T18:02:22.297Z,100664.17
2018-12-25T18:03:56.838Z,100664.17